Observations for Trim Patrick St
| Time | AQI | Temp °C | Hum % | Pres Pa | CO μg/m³ | H₂S μg/m³ | NO μg/m³ | NO₂ μg/m³ | O₃ μg/m³ | SO₂ μg/m³ | PM1 μg/m³ | PM2.5 μg/m³ | PM10 μg/m³ |
|---|---|---|---|---|---|---|---|---|---|---|---|---|---|
| Sunday 2 August 2026 | |||||||||||||
| 21:40 | 2 | 15.9 | 77 | 38,460 | 0.12 | 11.86 | 1.33 | 41.26 | 25.41 | 0.2 | 4.57 | 7.54 | 8.3 |
| 21:39 | 2 | 15.9 | 77 | 38,460 | 0.1 | 12.17 | 1.12 | 37.72 | 29.11 | 0.03 | 3.71 | 8.26 | 9.08 |
| 21:38 | 2 | 15.9 | 77 | 38,460 | 0.1 | 11.86 | 1.2 | 44.06 | 16.13 | 0.07 | 4.57 | 7.56 | 8.31 |
| 21:37 | 2 | 15.9 | 77 | 38,460 | 0.11 | 11.28 | 1.23 | 34.22 | 24.02 | 0.39 | 4.57 | 8.27 | 9.1 |
| 21:36 | 2 | 15.9 | 77 | 38,460 | 0.11 | 14.59 | 1.32 | 54.65 | 33.12 | 0 | 4.57 | 8.27 | 9.1 |
| 21:35 | 2 | 15.9 | 76 | 38,460 | 0.11 | 11.02 | 1.36 | 35.55 | 25.44 | 0.19 | 4.57 | 8.29 | 9.12 |
| 21:34 | 2 | 15.9 | 76 | 38,460 | 0.1 | 14.1 | 1.28 | 48.23 | 29.63 | 0 | 3.71 | 6.89 | 7.58 |
| 21:33 | 2 | 15.9 | 76 | 38,460 | 0.12 | 11.88 | 1.35 | 41.52 | 21.05 | 0.17 | 3.71 | 7.6 | 8.36 |
| 21:32 | 2 | 16 | 76 | 38,460 | 0.11 | 13.16 | 1.3 | 38.28 | 24.36 | 0.26 | 3.71 | 7.61 | 8.37 |
| 21:31 | 2 | 16 | 76 | 38,460 | 0.12 | 15.46 | 1.27 | 60.74 | 18.93 | 0 | 4.57 | 9.03 | 9.93 |
| 21:30 | 2 | 16 | 76 | 38,459 | 0.23 | 13.68 | 1.13 | 47.06 | 10.31 | 0.55 | 3.71 | 8.35 | 9.18 |
| 21:29 | 3 | 16 | 75 | 38,459 | 0.09 | 14.15 | 1.22 | 53.04 | 24.73 | 0 | 5.43 | 9.07 | 9.98 |
| 21:28 | 2 | 16 | 75 | 38,459 | 0.1 | 13.61 | 1.12 | 52.66 | 11.73 | 0 | 2.86 | 6.24 | 6.87 |
| 21:27 | 2 | 16 | 75 | 38,459 | 0.11 | 13.45 | 1.09 | 49.12 | 29.62 | 0.12 | 4.57 | 7.67 | 8.44 |
| 21:26 | 3 | 16.1 | 75 | 38,459 | 0.08 | 12.3 | 1.07 | 40.23 | 24.78 | 0 | 4.57 | 7.68 | 8.45 |
| 21:23 | 3 | 16.1 | 74 | 38,458 | 0.09 | 15.17 | 1.12 | 50.06 | 22.88 | 0 | 4.57 | 8.43 | 9.27 |
| 21:22 | 3 | 16.1 | 74 | 38,456 | 0.08 | 14 | 1.08 | 46.49 | 36.32 | 0 | 4.57 | 7.74 | 8.51 |
| 21:21 | 3 | 16.2 | 74 | 38,455 | 0.09 | 13.82 | 1.09 | 53.12 | 19.45 | 0 | 4.57 | 8.47 | 9.32 |
| 21:20 | 3 | 16.2 | 74 | 38,453 | 0.08 | 13.11 | 1.09 | 38.98 | 28.73 | 0.04 | 4.57 | 8.47 | 9.32 |
| 21:18 | 3 | 16.2 | 74 | 38,447 | 0.06 | 12.41 | 1.08 | 38.95 | 21.68 | 0 | 4.57 | 7.78 | 8.56 |